Terminal Aerodrome Forecast
Issued by NWS

Home | Current Version | Previous Version | Text Only | Print | Product List | Glossary On
Versions: 1 2 3 4 5 6 7 8 9 10 11 12 13 14
000
FTUS45 KPSR 310500
TAFBLH
TAF
KBLH 310538Z 3106/0106 19012KT P6SM SKC
     FM310900 18006KT P6SM FEW250
     FM311800 19012G22KT P6SM FEW250
     FM010100 22010KT P6SM FEW250=

USA.gov is the U.S. government's official web portal to all federal, state and local government web resources and services.